Latest Weather Observations for Warwick

IDQ60901

Issued at 11:11 pm EST Monday 18 June 2018 (issued every 10 minutes, with the page automatically refreshed every 10 minutes)

About weather observations | Map of Brisbane area stations | Latest observations for Brisbane area | Other Formats
Station Details ID: 041525 Name: WARWICK Lat: -28.21 Lon: 152.10 Height: 475.4 m
Data from the previous 72 hours. | See also: Recent months at Warwick
Date/Time
EST
Temp
°C
App
Temp
°C
Dew
Point
°C
Rel
Hum
%
Delta-T
°C
Wind Press
QNH
hPa
Press
MSL
hPa
Rain since
9am
mm
Dir  Spd
km/h
Gust
km/h
Spd
kts
Gust
kts
18/11:00pm 7.2 3.7 1.4 66 2.4 WSW 9 17 5 9 1019.5 1019.3 0.0
18/10:30pm 7.4 3.2 1.7 67 2.4 W 13 19 7 10 1019.3 1019.2 0.0
18/10:00pm 7.7 3.4 1.2 63 2.7 W 13 24 7 13 1019.1 1019.0 0.0
18/09:30pm 7.7 3.4 1.2 63 2.7 W 13 22 7 12 1019.3 1019.2 0.0
18/09:00pm 7.5 3.2 1.2 64 2.6 W 13 19 7 10 1019.3 1019.2 0.0
18/08:30pm 7.6 3.7 1.1 63 2.7 W 11 19 6 10 1019.5 1019.3 0.0
18/08:00pm 7.5 3.6 1.2 64 2.6 W 11 15 6 8 1019.6 1019.4 0.0
18/07:30pm 8.2 4.3 1.3 62 2.9 W 11 20 6 11 1019.5 1019.3 0.0
18/07:00pm 7.8 4.3 1.3 63 2.7 W 9 15 5 8 1019.3 1019.2 0.0
18/06:30pm 8.5 5.1 1.6 62 2.9 W 9 13 5 7 1019.3 1019.2 0.0
18/06:00pm 9.0 5.5 1.1 57 3.3 W 9 15 5 8 1018.6 1018.4 0.0
18/05:30pm 9.5 5.6 1.2 56 3.5 WSW 11 17 6 9 1018.1 1017.9 0.0
18/05:00pm 10.4 5.3 0.7 51 4.1 WSW 17 28 9 15 1018.0 1017.8 0.0
18/04:30pm 11.0 5.3 0.3 47 4.5 WSW 20 28 11 15 1017.8 1017.6 0.0
18/04:00pm 11.3 4.7 -0.2 45 4.8 WSW 24 33 13 18 1017.7 1017.5 0.0
18/03:30pm 11.2 3.1 -0.4 44 4.8 SW 32 46 17 25 1017.3 1017.1 0.0
18/03:00pm 12.5 4.8 -0.3 41 5.4 WSW 30 44 16 24 1017.0 1016.8 0.0
18/02:30pm 11.9 5.4 0.0 44 5.0 WSW 24 35 13 19 1017.1 1016.9 0.0
18/02:00pm 11.8 5.3 0.2 45 4.9 WSW 24 33 13 18 1017.3 1017.1 0.0
18/01:30pm 11.5 4.2 -0.2 44 4.9 SW 28 43 15 23 1017.3 1017.1 0.0
18/01:00pm 12.2 5.7 0.2 43 5.1 W 24 39 13 21 1017.6 1017.4 0.0
18/12:30pm 10.7 2.7 0.2 48 4.4 WSW 32 43 17 23 1017.9 1017.7 0.0
18/12:00pm 11.5 4.6 0.1 45 4.8 WSW 26 44 14 24 1018.3 1018.1 0.0
18/11:30am 11.0 4.5 0.3 47 4.5 WSW 24 35 13 19 1018.7 1018.5 0.0
18/11:00am 10.7 4.2 0.2 48 4.4 WSW 24 35 13 19 1018.9 1018.7 0.0
18/10:30am 9.9 2.6 0.0 50 4.1 WSW 28 39 15 21 1019.1 1019.0 0.0
18/10:00am 10.6 4.0 -0.6 46 4.6 WSW 24 37 13 20 1019.3 1019.2 0.0
18/09:30am 9.2 2.9 -1.1 48 4.1 WSW 22 37 12 20 1019.3 1019.2 0.0
18/09:00am 7.6 2.2 -1.4 53 3.5 WNW 17 24 9 13 1019.3 1019.2 0.0
18/08:30am 6.8 1.4 -1.2 56 3.1 NW 17 24 9 13 1019.2 1019.1 0.0
18/08:00am 5.8 0.7 -1.6 59 2.8 NW 15 22 8 12 1019.1 1019.0 0.0
18/07:30am 5.7 1.1 -1.4 60 2.7 NW 13 20 7 11 1019.1 1019.0 0.0
18/07:00am 5.4 0.7 -1.5 61 2.6 NW 13 20 7 11 1019.0 1018.9 0.0
18/06:30am 5.4 0.0 -1.4 61 2.6 NW 17 24 9 13 1018.6 1018.4 0.0
18/06:00am 5.3 0.6 -1.6 61 2.6 NW 13 20 7 11 1018.5 1018.3 0.0
18/05:30am 4.9 0.2 -1.5 63 2.4 NW 13 20 7 11 1018.4 1018.2 0.0
18/05:00am 5.3 0.2 -1.6 61 2.6 WNW 15 20 8 11 1018.3 1018.1 0.0
18/04:30am 5.8 0.7 -2.2 56 3.0 WNW 15 22 8 12 1018.4 1018.2 0.0
18/04:00am 5.7 0.2 -2.0 57 2.9 WNW 17 22 9 12 1018.6 1018.4 0.0
18/03:30am 5.7 1.0 -2.0 57 2.9 W 13 20 7 11 1019.0 1018.9 0.0
18/03:00am 5.8 1.5 -1.9 57 2.9 WNW 11 17 6 9 1019.1 1019.0 0.0
18/02:30am 5.5 1.5 -2.0 58 2.8 WNW 9 15 5 8 1019.3 1019.2 0.0
18/02:00am 5.2 1.3 -1.7 61 2.6 W 9 13 5 7 1019.6 1019.4 0.0
18/01:30am 5.0 1.2 -1.0 65 2.3 W 9 13 5 7 1019.9 1019.7 0.0
18/01:00am 5.6 1.7 -1.8 59 2.8 W 9 17 5 9 1019.9 1019.7 0.0
18/12:30am 5.2 1.7 -1.7 61 2.6 W 7 13 4 7 1020.0 1019.8 0.0
18/12:00am 5.9 1.5 -2.1 56 3.0 W 11 15 6 8 1020.1 1019.9 0.0
 
Date/Time
EST
Temp
°C
App
Temp
°C
Dew
Point
°C
Rel
Hum
%
Delta-T
°C
Wind Press
QNH
hPa
Press
MSL
hPa
Rain since
9am
mm
Dir  Spd
km/h
Gust
km/h
Spd
kts
Gust
kts
17/11:30pm 5.9 2.3 -2.4 55 3.1 W 7 13 4 7 1020.1 1019.9 0.0
17/11:00pm 6.7 2.3 -2.3 52 3.4 W 11 20 6 11 1020.2 1020.0 0.0
17/10:30pm 7.4 2.9 -3.4 46 4.0 WNW 11 17 6 9 1020.1 1019.9 0.0
17/10:00pm 7.8 3.3 -3.5 44 4.2 WNW 11 17 6 9 1019.9 1019.7 0.0
17/09:30pm 8.0 3.4 -4.0 42 4.4 WNW 11 17 6 9 1019.8 1019.6 0.0
17/09:00pm 8.1 3.2 -3.8 43 4.4 WNW 13 17 7 9 1019.7 1019.5 0.0
17/08:30pm 8.0 3.8 -3.6 43 4.3 W 9 15 5 8 1019.7 1019.5 0.0
17/08:00pm 8.4 4.3 -3.0 44 4.3 WNW 9 13 5 7 1019.6 1019.4 0.0
17/07:30pm 9.0 4.5 -3.5 41 4.7 W 11 15 6 8 1019.3 1019.2 0.0
17/07:00pm 9.3 4.7 -3.8 39 4.9 W 11 19 6 10 1019.1 1019.0 0.0
17/06:30pm 10.0 4.6 -4.5 35 5.4 W 15 22 8 12 1018.5 1018.3 0.0
17/06:00pm 10.0 4.6 -4.5 35 5.4 WSW 15 24 8 13 1018.4 1018.2 0.0
17/05:30pm 10.6 4.8 -5.1 33 5.8 WSW 17 28 9 15 1017.9 1017.7 0.0
17/05:00pm 11.6 4.7 -5.8 29 6.4 WSW 22 32 12 17 1017.6 1017.4 0.0
17/04:30pm 12.9 6.6 -5.9 26 7.0 WSW 19 32 10 17 1017.0 1016.8 0.0
17/04:00pm 13.6 5.5 -7.2 23 7.6 WSW 28 43 15 23 1016.9 1016.7 0.0
17/03:30pm 14.0 7.1 -6.3 24 7.6 WSW 22 39 12 21 1016.8 1016.6 0.0
17/03:00pm 14.3 7.9 -5.2 25 7.5 W 20 35 11 19 1016.7 1016.5 0.0
17/02:35pm 14.3 6.1 -7.6 21 8.0 WSW 28 48 15 26 1016.6 1016.4 0.0
17/02:30pm 14.8 7.1 -7.0 21 8.1 WSW 26 46 14 25 1016.7 1016.5 0.0
17/02:28pm 14.7 6.5 -7.7 20 8.2 WSW 28 46 15 25 1016.7 1016.5 0.0
17/02:00pm 13.9 6.3 -5.6 25 7.4 W 26 41 14 22 1016.8 1016.6 0.0
17/01:30pm 14.1 5.7 -5.6 25 7.5 WSW 30 43 16 23 1017.1 1016.9 0.0
17/01:00pm 14.1 6.6 -4.7 27 7.3 W 26 43 14 23 1017.5 1017.3 0.0
17/12:30pm 13.8 5.5 -5.4 26 7.3 W 30 44 16 24 1017.7 1017.5 0.0
17/12:00pm 14.2 6.4 -4.1 28 7.2 W 28 44 15 24 1018.2 1018.0 0.0
17/11:30am 13.7 5.6 -3.4 30 6.8 WSW 30 48 16 26 1018.7 1018.5 0.0
17/11:28am 13.5 5.4 -3.4 31 6.7 WSW 30 48 16 26 1018.7 1018.5 0.0
17/11:00am 13.3 5.5 -3.4 31 6.6 W 28 44 15 24 1019.0 1018.9 0.0
17/10:30am 13.1 5.6 -4.2 30 6.7 WSW 26 43 14 23 1019.2 1019.1 0.0
17/10:00am 12.4 4.6 -3.4 33 6.2 WSW 28 46 15 25 1019.5 1019.3 0.0
17/09:47am 12.4 4.7 -3.1 34 6.1 W 28 46 15 25 1019.7 1019.5 0.0
17/09:30am 12.1 6.7 -1.7 38 5.6 W 17 30 9 16 1019.7 1019.5 0.0
17/09:00am 10.5 5.5 -1.1 44 4.7 WNW 15 24 8 13 1019.7 1019.5 0.0
17/08:30am 9.8 5.3 -0.5 48 4.2 WNW 13 20 7 11 1019.6 1019.4 0.0
17/08:00am 8.8 4.2 -1.0 50 3.9 NW 13 20 7 11 1019.5 1019.3 0.0
17/07:30am 8.4 3.0 -1.2 51 3.8 NW 17 24 9 13 1019.3 1019.2 0.0
17/07:00am 7.8 2.8 -1.1 53 3.5 NW 15 24 8 13 1019.1 1019.0 0.0
17/06:30am 7.8 3.2 -0.8 54 3.4 WNW 13 19 7 10 1018.9 1018.7 0.0
17/06:00am 7.9 3.7 -0.6 55 3.4 WNW 11 17 6 9 1018.7 1018.5 0.0
17/05:30am 8.0 3.8 -0.8 54 3.5 WNW 11 15 6 8 1018.3 1018.1 0.0
17/05:00am 8.4 3.9 -0.6 53 3.6 WNW 13 20 7 11 1018.3 1018.1 0.0
17/04:30am 8.6 3.8 0.0 55 3.5 WNW 15 24 8 13 1018.3 1018.1 0.0
17/04:00am 8.7 4.3 0.1 55 3.5 WNW 13 19 7 10 1018.3 1018.1 0.0
17/03:30am 9.2 4.8 0.2 53 3.7 WNW 13 20 7 11 1018.2 1018.0 0.0
17/03:00am 9.8 5.5 0.7 53 3.8 WNW 13 20 7 11 1018.2 1018.0 0.0
17/02:30am 10.5 5.7 0.5 50 4.2 WNW 15 20 8 11 1018.3 1018.1 0.0
17/02:00am 10.8 6.1 0.6 49 4.3 NW 15 24 8 13 1018.3 1018.1 0.0
17/01:30am 11.2 6.0 -0.1 45 4.7 WNW 17 24 9 13 1018.5 1018.3 0.0
17/01:00am 11.6 6.3 -0.4 43 5.0 WNW 17 28 9 15 1018.8 1018.6 0.0
17/12:30am 12.0 6.1 -0.8 41 5.3 WNW 20 28 11 15 1018.9 1018.7 0.0
17/12:00am 11.9 6.6 -0.6 42 5.2 NW 17 22 9 12 1019.3 1019.2 0.0
 
Date/Time
EST
Temp
°C
App
Temp
°C
Dew
Point
°C
Rel
Hum
%
Delta-T
°C
Wind Press
QNH
hPa
Press
MSL
hPa
Rain since
9am
mm
Dir  Spd
km/h
Gust
km/h
Spd
kts
Gust
kts
16/11:30pm 12.0 6.7 -0.5 42 5.2 NW 17 24 9 13 1019.3 1019.2 0.0
16/11:00pm 12.1 7.5 -0.7 41 5.3 WNW 13 19 7 10 1019.8 1019.6 0.0
16/10:30pm 12.9 7.5 -1.1 38 5.8 WNW 17 26 9 14 1019.5 1019.3 0.0
16/10:00pm 13.5 7.5 -1.5 35 6.2 WNW 20 28 11 15 1019.3 1019.2 0.0
16/09:30pm 13.5 7.8 -1.1 36 6.1 WNW 19 26 10 14 1019.5 1019.3 0.0
16/09:00pm 13.1 8.2 -0.8 38 5.8 WNW 15 20 8 11 1019.6 1019.4 0.0
16/08:30pm 13.4 8.0 -1.3 36 6.1 WNW 17 24 9 13 1019.8 1019.6 0.0
16/08:00pm 13.4 8.0 -1.0 37 6.0 WNW 17 22 9 12 1019.7 1019.5 0.0
16/07:30pm 13.8 8.8 -1.3 35 6.3 WNW 15 20 8 11 1019.3 1019.2 0.0
16/07:00pm 13.9 9.2 -1.5 34 6.4 WNW 13 20 7 11 1019.2 1019.1 0.0
16/06:30pm 14.2 9.2 -1.4 34 6.5 WNW 15 22 8 12 1018.9 1018.7 0.0
16/06:00pm 14.4 9.3 -1.7 33 6.7 WNW 15 20 8 11 1018.6 1018.4 0.0
16/05:30pm 14.8 9.7 -2.1 31 7.0 WNW 15 24 8 13 1018.4 1018.2 0.0
16/05:00pm 15.6 10.4 -2.6 28 7.5 WNW 15 24 8 13 1018.0 1017.8 0.0
16/04:30pm 16.6 11.5 -1.8 28 7.8 W 15 24 8 13 1017.7 1017.5 0.0
16/04:00pm 18.1 13.0 -1.6 26 8.5 W 15 24 8 13 1017.5 1017.3 0.0
16/03:30pm 17.5 12.1 -1.3 28 8.1 W 17 28 9 15 1017.7 1017.5 0.0
16/03:00pm 18.2 12.5 -3.5 22 9.0 W 17 28 9 15 1017.7 1017.5 0.0
16/02:30pm 18.4 13.4 -1.4 26 8.6 W 15 24 8 13 1017.8 1017.6 0.0
16/02:00pm 18.1 12.2 -2.0 25 8.6 W 19 32 10 17 1017.9 1017.7 0.0
16/01:30pm 18.3 12.9 -1.6 26 8.6 W 17 32 9 17 1018.2 1018.0 0.0
16/01:00pm 18.3 13.3 -0.9 27 8.4 W 15 26 8 14 1018.7 1018.5 0.0
16/12:30pm 17.3 11.6 -0.9 29 7.9 W 19 28 10 15 1019.3 1019.2 0.0
16/12:00pm 17.0 11.3 -1.1 29 7.8 W 19 30 10 16 1020.0 1019.8 0.0
16/11:30am 16.3 10.6 -0.6 31 7.3 W 19 32 10 17 1020.8 1020.7 0.0
16/11:00am 16.1 11.1 -0.9 31 7.3 W 15 22 8 12 1021.3 1021.2 0.0
16/10:30am 15.2 10.6 -1.1 32 6.9 WNW 13 22 7 12 1021.8 1021.6 0.0
16/10:00am 14.5 11.2 -0.9 34 6.5 W 6 13 3 7 1022.2 1022.0 0.0
16/09:30am 10.8 8.7 -1.0 44 4.8 CALM 0 0 0 0 1022.4 1022.2 0.0
16/09:00am 7.3 5.0 -2.2 51 3.6 CALM 0 0 0 0 1022.3 1022.1 0.0
16/08:30am 4.5 2.1 -3.3 57 2.8 CALM 0 0 0 0 1022.2 1022.0 0.0
16/08:00am 2.4 0.0 -3.0 67 1.9 CALM 0 0 0 0 1022.2 1022.0 0.0
16/07:30am 0.9 - - - - CALM 0 0 0 0 1022.1 1021.9 0.0
16/07:00am 0.2 - - - - CALM 0 0 0 0 1022.0 1021.8 0.0
16/06:30am -0.2 - - - - CALM 0 0 0 0 1021.4 1021.3 0.0
16/06:00am -0.1 - - - - CALM 0 0 0 0 1021.3 1021.2 0.0
16/05:30am -0.2 - - - - CALM 0 0 0 0 1021.1 1021.0 0.0
16/05:00am 0.2 - - - - CALM 0 0 0 0 1021.0 1020.9 0.0
16/04:30am 0.7 - - - - CALM 0 0 0 0 1020.8 1020.7 0.0
16/04:00am 1.6 - - - - CALM 0 0 0 0 1021.0 1020.9 0.0
16/03:30am 0.8 - - - - CALM 0 0 0 0 1021.2 1021.1 0.0
16/03:00am 1.4 - - - - CALM 0 0 0 0 1021.3 1021.2 0.0
16/02:30am 2.4 0.1 -2.7 69 1.8 CALM 0 0 0 0 1021.4 1021.3 0.0
16/02:00am 2.4 0.1 -2.4 70 1.7 CALM 0 0 0 0 1021.7 1021.5 0.0
16/01:30am 4.2 1.9 -2.4 62 2.4 CALM 0 0 0 0 1021.8 1021.6 0.0
16/01:00am 4.5 2.2 -2.3 61 2.5 CALM 0 0 0 0 1021.7 1021.5 0.0
16/12:30am 6.9 4.7 -1.4 55 3.2 CALM 0 0 0 0 1021.5 1021.4 0.0
16/12:00am 7.8 5.3 -4.3 42 4.4 CALM 0 0 0 0 1021.8 1021.6 0.0
 
Date/Time
EST
Temp
°C
App
Temp
°C
Dew
Point
°C
Rel
Hum
%
Delta-T
°C
Wind Press
QNH
hPa
Press
MSL
hPa
Rain since
9am
mm
Dir  Spd
km/h
Gust
km/h
Spd
kts
Gust
kts
15/11:30pm 6.0 3.4 -4.8 46 3.8 CALM 0 0 0 0 1021.9 1021.7 0.0

Latest Capital City Observations: Canberra | Sydney | Melbourne | Brisbane | Adelaide | Perth | Hobart | Darwin

Other Formats:

Comma delimited format used in spreadsheet applications
http://www.bom.gov.au/fwo/IDQ60901/IDQ60901.94555.axf

JavaScript Object Notation format (JSON) in row-major order
http://www.bom.gov.au/fwo/IDQ60901/IDQ60901.94555.json